sensor_id;sensor_type;location;lat;lon;timestamp;P1;durP1;ratioP1;P2;durP2;ratioP2
769;SDS011;368;48.698;9.116;2023-05-07T00:00:33;8.27;;;4.60;;
769;SDS011;368;48.698;9.116;2023-05-07T00:03:00;3.33;;;3.13;;
769;SDS011;368;48.698;9.116;2023-05-07T00:05:28;5.03;;;4.47;;
769;SDS011;368;48.698;9.116;2023-05-07T00:07:55;4.73;;;3.60;;
769;SDS011;368;48.698;9.116;2023-05-07T00:10:22;4.60;;;4.20;;
769;SDS011;368;48.698;9.116;2023-05-07T00:12:50;4.27;;;3.87;;
769;SDS011;368;48.698;9.116;2023-05-07T00:15:17;4.73;;;3.80;;
769;SDS011;368;48.698;9.116;2023-05-07T00:17:44;5.27;;;4.77;;
769;SDS011;368;48.698;9.116;2023-05-07T00:20:11;4.57;;;4.17;;
769;SDS011;368;48.698;9.116;2023-05-07T00:22:39;6.17;;;4.90;;
769;SDS011;368;48.698;9.116;2023-05-07T00:25:06;3.70;;;3.40;;
769;SDS011;368;48.698;9.116;2023-05-07T00:27:35;4.60;;;4.20;;
769;SDS011;368;48.698;9.116;2023-05-07T00:30:02;6.20;;;3.93;;
769;SDS011;368;48.698;9.116;2023-05-07T00:32:29;4.57;;;4.17;;
769;SDS011;368;48.698;9.116;2023-05-07T00:34:56;4.70;;;4.30;;
769;SDS011;368;48.698;9.116;2023-05-07T00:37:23;4.50;;;3.70;;
769;SDS011;368;48.698;9.116;2023-05-07T00:39:51;5.60;;;4.03;;
769;SDS011;368;48.698;9.116;2023-05-07T00:42:18;4.07;;;3.77;;
769;SDS011;368;48.698;9.116;2023-05-07T00:44:45;7.97;;;5.43;;
769;SDS011;368;48.698;9.116;2023-05-07T00:47:12;6.20;;;5.30;;
769;SDS011;368;48.698;9.116;2023-05-07T00:49:41;6.60;;;6.00;;
769;SDS011;368;48.698;9.116;2023-05-07T00:52:09;5.03;;;3.90;;
769;SDS011;368;48.698;9.116;2023-05-07T00:54:39;5.57;;;5.17;;
769;SDS011;368;48.698;9.116;2023-05-07T00:57:08;5.70;;;5.20;;
769;SDS011;368;48.698;9.116;2023-05-07T00:59:36;6.40;;;5.80;;
769;SDS011;368;48.698;9.116;2023-05-07T01:02:03;7.23;;;6.13;;
769;SDS011;368;48.698;9.116;2023-05-07T01:04:30;4.33;;;4.03;;
769;SDS011;368;48.698;9.116;2023-05-07T01:06:57;5.97;;;5.47;;
769;SDS011;368;48.698;9.116;2023-05-07T01:09:25;5.40;;;4.80;;
769;SDS011;368;48.698;9.116;2023-05-07T01:11:53;6.37;;;5.30;;
769;SDS011;368;48.698;9.116;2023-05-07T01:14:23;5.70;;;5.10;;
769;SDS011;368;48.698;9.116;2023-05-07T01:16:50;7.30;;;6.03;;
769;SDS011;368;48.698;9.116;2023-05-07T01:19:18;6.10;;;5.60;;
769;SDS011;368;48.698;9.116;2023-05-07T01:21:47;6.30;;;5.50;;
769;SDS011;368;48.698;9.116;2023-05-07T01:24:16;4.93;;;4.53;;
769;SDS011;368;48.698;9.116;2023-05-07T01:26:43;4.97;;;4.57;;
769;SDS011;368;48.698;9.116;2023-05-07T01:29:10;5.30;;;4.80;;
769;SDS011;368;48.698;9.116;2023-05-07T01:31:37;5.53;;;5.03;;
769;SDS011;368;48.698;9.116;2023-05-07T01:34:06;4.97;;;4.43;;
769;SDS011;368;48.698;9.116;2023-05-07T01:36:34;4.80;;;4.40;;
769;SDS011;368;48.698;9.116;2023-05-07T01:39:02;6.40;;;5.80;;
769;SDS011;368;48.698;9.116;2023-05-07T01:41:31;5.43;;;4.70;;
769;SDS011;368;48.698;9.116;2023-05-07T01:43:58;5.60;;;5.20;;
769;SDS011;368;48.698;9.116;2023-05-07T01:46:26;5.03;;;4.37;;
769;SDS011;368;48.698;9.116;2023-05-07T01:48:53;5.80;;;4.13;;
769;SDS011;368;48.698;9.116;2023-05-07T01:51:20;4.50;;;4.10;;
769;SDS011;368;48.698;9.116;2023-05-07T01:53:48;4.40;;;4.07;;
769;SDS011;368;48.698;9.116;2023-05-07T01:56:16;4.53;;;3.23;;
769;SDS011;368;48.698;9.116;2023-05-07T01:58:44;4.03;;;3.63;;
769;SDS011;368;48.698;9.116;2023-05-07T02:01:12;3.80;;;3.50;;
769;SDS011;368;48.698;9.116;2023-05-07T02:03:39;3.70;;;3.40;;
769;SDS011;368;48.698;9.116;2023-05-07T02:06:06;4.03;;;3.63;;
769;SDS011;368;48.698;9.116;2023-05-07T02:08:33;5.20;;;3.40;;
769;SDS011;368;48.698;9.116;2023-05-07T02:10:59;4.63;;;4.03;;
769;SDS011;368;48.698;9.116;2023-05-07T02:13:29;5.47;;;4.37;;
769;SDS011;368;48.698;9.116;2023-05-07T02:16:00;3.90;;;3.60;;
769;SDS011;368;48.698;9.116;2023-05-07T02:18:27;4.77;;;4.07;;
769;SDS011;368;48.698;9.116;2023-05-07T02:20:54;4.23;;;3.73;;
769;SDS011;368;48.698;9.116;2023-05-07T02:23:20;3.50;;;3.20;;
769;SDS011;368;48.698;9.116;2023-05-07T02:25:47;8.30;;;4.33;;
769;SDS011;368;48.698;9.116;2023-05-07T02:28:14;4.70;;;4.13;;
769;SDS011;368;48.698;9.116;2023-05-07T02:30:41;4.70;;;4.30;;
769;SDS011;368;48.698;9.116;2023-05-07T02:33:09;4.67;;;4.07;;
769;SDS011;368;48.698;9.116;2023-05-07T02:35:37;3.73;;;3.43;;
769;SDS011;368;48.698;9.116;2023-05-07T02:38:04;4.00;;;3.70;;
769;SDS011;368;48.698;9.116;2023-05-07T02:40:31;4.73;;;4.23;;
769;SDS011;368;48.698;9.116;2023-05-07T02:42:59;3.93;;;3.60;;
769;SDS011;368;48.698;9.116;2023-05-07T02:45:26;4.90;;;4.50;;
769;SDS011;368;48.698;9.116;2023-05-07T02:47:53;4.23;;;3.70;;
769;SDS011;368;48.698;9.116;2023-05-07T02:50:21;4.20;;;3.80;;
769;SDS011;368;48.698;9.116;2023-05-07T02:52:48;4.40;;;3.83;;
769;SDS011;368;48.698;9.116;2023-05-07T02:55:15;4.20;;;3.77;;
769;SDS011;368;48.698;9.116;2023-05-07T02:57:42;4.47;;;4.07;;
769;SDS011;368;48.698;9.116;2023-05-07T03:00:12;5.43;;;3.83;;
769;SDS011;368;48.698;9.116;2023-05-07T03:02:47;6.20;;;3.63;;
769;SDS011;368;48.698;9.116;2023-05-07T03:05:14;4.13;;;3.70;;
769;SDS011;368;48.698;9.116;2023-05-07T03:07:43;4.10;;;3.73;;
769;SDS011;368;48.698;9.116;2023-05-07T03:10:11;4.17;;;3.87;;
769;SDS011;368;48.698;9.116;2023-05-07T03:12:37;4.80;;;4.20;;
769;SDS011;368;48.698;9.116;2023-05-07T03:15:05;4.53;;;4.00;;
769;SDS011;368;48.698;9.116;2023-05-07T03:17:33;5.07;;;4.27;;
769;SDS011;368;48.698;9.116;2023-05-07T03:19:59;4.70;;;4.20;;
769;SDS011;368;48.698;9.116;2023-05-07T03:22:26;5.10;;;4.70;;
769;SDS011;368;48.698;9.116;2023-05-07T03:24:54;4.10;;;3.80;;
769;SDS011;368;48.698;9.116;2023-05-07T03:27:21;5.13;;;4.10;;
769;SDS011;368;48.698;9.116;2023-05-07T03:29:48;4.03;;;3.73;;
769;SDS011;368;48.698;9.116;2023-05-07T03:32:15;4.90;;;3.80;;
769;SDS011;368;48.698;9.116;2023-05-07T03:34:41;3.87;;;3.53;;
769;SDS011;368;48.698;9.116;2023-05-07T03:37:08;4.37;;;3.90;;
769;SDS011;368;48.698;9.116;2023-05-07T03:39:35;3.90;;;3.60;;
769;SDS011;368;48.698;9.116;2023-05-07T03:42:03;4.20;;;3.80;;
769;SDS011;368;48.698;9.116;2023-05-07T03:44:30;3.60;;;3.30;;
769;SDS011;368;48.698;9.116;2023-05-07T03:46:57;4.80;;;4.33;;
769;SDS011;368;48.698;9.116;2023-05-07T03:49:24;4.40;;;3.57;;
769;SDS011;368;48.698;9.116;2023-05-07T03:51:50;4.13;;;3.73;;
769;SDS011;368;48.698;9.116;2023-05-07T03:54:17;4.13;;;3.73;;
769;SDS011;368;48.698;9.116;2023-05-07T03:56:44;4.60;;;4.17;;
769;SDS011;368;48.698;9.116;2023-05-07T03:59:13;3.93;;;3.60;;
769;SDS011;368;48.698;9.116;2023-05-07T04:01:40;5.20;;;4.43;;
769;SDS011;368;48.698;9.116;2023-05-07T04:04:06;4.20;;;3.90;;
769;SDS011;368;48.698;9.116;2023-05-07T04:06:33;4.90;;;4.50;;
769;SDS011;368;48.698;9.116;2023-05-07T04:09:00;4.10;;;3.80;;
769;SDS011;368;48.698;9.116;2023-05-07T04:11:27;4.57;;;4.27;;
769;SDS011;368;48.698;9.116;2023-05-07T04:13:54;5.10;;;4.70;;
769;SDS011;368;48.698;9.116;2023-05-07T04:16:22;4.60;;;4.30;;
769;SDS011;368;48.698;9.116;2023-05-07T04:18:49;4.40;;;3.73;;
769;SDS011;368;48.698;9.116;2023-05-07T04:21:16;4.30;;;3.90;;
769;SDS011;368;48.698;9.116;2023-05-07T04:23:43;3.90;;;3.53;;
769;SDS011;368;48.698;9.116;2023-05-07T04:26:12;4.00;;;3.40;;
769;SDS011;368;48.698;9.116;2023-05-07T04:28:39;4.33;;;4.03;;
769;SDS011;368;48.698;9.116;2023-05-07T04:31:06;3.80;;;3.40;;
769;SDS011;368;48.698;9.116;2023-05-07T04:33:35;3.50;;;3.30;;
769;SDS011;368;48.698;9.116;2023-05-07T04:36:02;8.27;;;3.80;;
769;SDS011;368;48.698;9.116;2023-05-07T04:38:29;3.60;;;3.30;;
769;SDS011;368;48.698;9.116;2023-05-07T04:40:56;3.50;;;3.20;;
769;SDS011;368;48.698;9.116;2023-05-07T04:43:23;4.10;;;3.80;;
769;SDS011;368;48.698;9.116;2023-05-07T04:45:50;4.60;;;4.20;;
769;SDS011;368;48.698;9.116;2023-05-07T04:48:17;7.43;;;4.60;;
769;SDS011;368;48.698;9.116;2023-05-07T04:50:48;4.90;;;4.50;;
769;SDS011;368;48.698;9.116;2023-05-07T04:53:15;4.90;;;4.50;;
769;SDS011;368;48.698;9.116;2023-05-07T04:55:42;5.00;;;3.90;;
769;SDS011;368;48.698;9.116;2023-05-07T04:58:09;5.40;;;4.80;;
769;SDS011;368;48.698;9.116;2023-05-07T05:00:36;5.20;;;4.80;;
769;SDS011;368;48.698;9.116;2023-05-07T05:03:03;6.03;;;5.03;;
769;SDS011;368;48.698;9.116;2023-05-07T05:05:30;3.80;;;3.50;;
769;SDS011;368;48.698;9.116;2023-05-07T05:07:58;6.07;;;5.57;;
769;SDS011;368;48.698;9.116;2023-05-07T05:10:25;3.87;;;3.57;;
769;SDS011;368;48.698;9.116;2023-05-07T05:12:52;5.10;;;3.13;;
769;SDS011;368;48.698;9.116;2023-05-07T05:15:19;3.43;;;3.23;;
769;SDS011;368;48.698;9.116;2023-05-07T05:17:46;4.50;;;3.50;;
769;SDS011;368;48.698;9.116;2023-05-07T05:20:13;3.30;;;3.00;;
769;SDS011;368;48.698;9.116;2023-05-07T05:22:40;3.77;;;3.47;;
769;SDS011;368;48.698;9.116;2023-05-07T05:25:09;6.40;;;4.03;;
769;SDS011;368;48.698;9.116;2023-05-07T05:27:36;6.80;;;5.07;;
769;SDS011;368;48.698;9.116;2023-05-07T05:30:03;4.90;;;4.50;;
769;SDS011;368;48.698;9.116;2023-05-07T05:32:31;4.17;;;3.70;;
769;SDS011;368;48.698;9.116;2023-05-07T05:34:57;3.93;;;3.60;;
769;SDS011;368;48.698;9.116;2023-05-07T05:37:25;3.67;;;3.37;;
769;SDS011;368;48.698;9.116;2023-05-07T05:39:51;3.30;;;2.43;;
769;SDS011;368;48.698;9.116;2023-05-07T05:42:21;3.07;;;2.60;;
769;SDS011;368;48.698;9.116;2023-05-07T05:44:47;3.13;;;2.90;;
769;SDS011;368;48.698;9.116;2023-05-07T05:47:14;3.30;;;3.00;;
769;SDS011;368;48.698;9.116;2023-05-07T05:49:41;4.70;;;3.60;;
769;SDS011;368;48.698;9.116;2023-05-07T05:52:09;5.00;;;4.50;;
769;SDS011;368;48.698;9.116;2023-05-07T05:54:36;4.30;;;3.90;;
769;SDS011;368;48.698;9.116;2023-05-07T05:57:03;3.97;;;3.30;;
769;SDS011;368;48.698;9.116;2023-05-07T05:59:32;4.40;;;4.00;;
769;SDS011;368;48.698;9.116;2023-05-07T06:01:59;5.50;;;4.13;;
769;SDS011;368;48.698;9.116;2023-05-07T06:04:26;6.07;;;3.60;;
769;SDS011;368;48.698;9.116;2023-05-07T06:06:53;4.00;;;3.70;;
769;SDS011;368;48.698;9.116;2023-05-07T06:09:20;6.87;;;4.27;;
769;SDS011;368;48.698;9.116;2023-05-07T06:11:46;4.77;;;3.67;;
769;SDS011;368;48.698;9.116;2023-05-07T06:30:08;5.67;;;4.23;;
769;SDS011;368;48.698;9.116;2023-05-07T06:32:36;4.13;;;3.83;;
769;SDS011;368;48.698;9.116;2023-05-07T06:35:03;3.93;;;3.60;;
769;SDS011;368;48.698;9.116;2023-05-07T06:37:30;3.80;;;3.30;;
769;SDS011;368;48.698;9.116;2023-05-07T06:39:57;4.70;;;4.20;;
769;SDS011;368;48.698;9.116;2023-05-07T06:42:24;5.77;;;3.90;;
769;SDS011;368;48.698;9.116;2023-05-07T06:44:51;4.40;;;4.10;;
769;SDS011;368;48.698;9.116;2023-05-07T06:47:19;4.00;;;3.60;;
769;SDS011;368;48.698;9.116;2023-05-07T06:49:46;4.13;;;3.53;;
769;SDS011;368;48.698;9.116;2023-05-07T06:52:13;4.70;;;4.20;;
769;SDS011;368;48.698;9.116;2023-05-07T06:54:39;4.37;;;3.97;;
769;SDS011;368;48.698;9.116;2023-05-07T06:57:06;4.10;;;3.80;;
769;SDS011;368;48.698;9.116;2023-05-07T06:59:33;5.40;;;3.27;;
769;SDS011;368;48.698;9.116;2023-05-07T07:02:00;4.13;;;3.83;;
769;SDS011;368;48.698;9.116;2023-05-07T07:04:28;4.13;;;3.73;;
769;SDS011;368;48.698;9.116;2023-05-07T07:06:55;4.40;;;4.00;;
769;SDS011;368;48.698;9.116;2023-05-07T07:09:22;4.33;;;4.03;;
769;SDS011;368;48.698;9.116;2023-05-07T07:11:49;4.30;;;3.90;;
769;SDS011;368;48.698;9.116;2023-05-07T07:14:16;4.83;;;4.37;;
769;SDS011;368;48.698;9.116;2023-05-07T07:16:43;4.17;;;3.87;;
769;SDS011;368;48.698;9.116;2023-05-07T07:19:11;4.60;;;4.23;;
769;SDS011;368;48.698;9.116;2023-05-07T07:21:41;4.23;;;3.43;;
769;SDS011;368;48.698;9.116;2023-05-07T07:24:08;4.17;;;3.70;;
769;SDS011;368;48.698;9.116;2023-05-07T07:26:35;3.50;;;3.10;;
769;SDS011;368;48.698;9.116;2023-05-07T07:29:02;3.80;;;3.47;;
769;SDS011;368;48.698;9.116;2023-05-07T07:31:28;3.70;;;3.40;;
769;SDS011;368;48.698;9.116;2023-05-07T07:33:55;4.37;;;4.00;;
769;SDS011;368;48.698;9.116;2023-05-07T07:36:22;4.00;;;3.70;;
769;SDS011;368;48.698;9.116;2023-05-07T07:41:42;3.00;;;2.80;;
769;SDS011;368;48.698;9.116;2023-05-07T07:44:09;3.03;;;2.83;;
769;SDS011;368;48.698;9.116;2023-05-07T07:46:37;2.87;;;2.67;;
769;SDS011;368;48.698;9.116;2023-05-07T07:49:04;6.83;;;3.40;;
769;SDS011;368;48.698;9.116;2023-05-07T07:51:31;3.47;;;3.13;;
769;SDS011;368;48.698;9.116;2023-05-07T07:53:59;3.00;;;2.80;;
769;SDS011;368;48.698;9.116;2023-05-07T07:56:27;3.30;;;3.00;;
769;SDS011;368;48.698;9.116;2023-05-07T07:58:55;2.77;;;2.57;;
769;SDS011;368;48.698;9.116;2023-05-07T08:01:22;5.20;;;3.27;;
769;SDS011;368;48.698;9.116;2023-05-07T08:03:49;3.30;;;3.00;;
769;SDS011;368;48.698;9.116;2023-05-07T08:06:15;4.53;;;3.30;;
769;SDS011;368;48.698;9.116;2023-05-07T08:08:42;2.70;;;2.50;;
769;SDS011;368;48.698;9.116;2023-05-07T08:11:10;2.73;;;2.53;;
769;SDS011;368;48.698;9.116;2023-05-07T08:13:37;2.80;;;2.60;;
769;SDS011;368;48.698;9.116;2023-05-07T08:16:06;2.63;;;2.43;;
769;SDS011;368;48.698;9.116;2023-05-07T08:18:33;3.50;;;3.20;;
769;SDS011;368;48.698;9.116;2023-05-07T08:21:00;2.87;;;2.67;;
769;SDS011;368;48.698;9.116;2023-05-07T08:23:27;3.17;;;2.87;;
769;SDS011;368;48.698;9.116;2023-05-07T08:25:54;3.00;;;2.80;;
769;SDS011;368;48.698;9.116;2023-05-07T08:28:20;2.67;;;2.40;;
769;SDS011;368;48.698;9.116;2023-05-07T08:30:49;4.60;;;3.30;;
769;SDS011;368;48.698;9.116;2023-05-07T08:33:17;2.80;;;2.60;;
769;SDS011;368;48.698;9.116;2023-05-07T08:35:45;4.30;;;3.00;;
769;SDS011;368;48.698;9.116;2023-05-07T08:38:12;2.60;;;2.40;;
769;SDS011;368;48.698;9.116;2023-05-07T08:40:39;3.57;;;2.53;;
769;SDS011;368;48.698;9.116;2023-05-07T08:43:07;3.43;;;3.10;;
769;SDS011;368;48.698;9.116;2023-05-07T08:45:34;2.90;;;2.70;;
769;SDS011;368;48.698;9.116;2023-05-07T08:48:02;2.60;;;2.30;;
769;SDS011;368;48.698;9.116;2023-05-07T08:50:34;3.50;;;2.73;;
769;SDS011;368;48.698;9.116;2023-05-07T08:53:02;3.30;;;3.10;;
769;SDS011;368;48.698;9.116;2023-05-07T08:55:29;3.00;;;2.60;;
769;SDS011;368;48.698;9.116;2023-05-07T08:57:56;5.27;;;3.10;;
769;SDS011;368;48.698;9.116;2023-05-07T09:00:23;2.67;;;2.47;;
769;SDS011;368;48.698;9.116;2023-05-07T09:02:50;3.00;;;2.80;;
769;SDS011;368;48.698;9.116;2023-05-07T09:05:18;2.80;;;2.60;;
769;SDS011;368;48.698;9.116;2023-05-07T09:07:46;2.93;;;2.73;;
769;SDS011;368;48.698;9.116;2023-05-07T09:10:14;2.70;;;2.50;;
769;SDS011;368;48.698;9.116;2023-05-07T09:12:40;5.60;;;3.10;;
769;SDS011;368;48.698;9.116;2023-05-07T09:15:08;2.83;;;2.63;;
769;SDS011;368;48.698;9.116;2023-05-07T09:17:35;2.70;;;2.50;;
769;SDS011;368;48.698;9.116;2023-05-07T09:20:02;2.73;;;2.53;;
769;SDS011;368;48.698;9.116;2023-05-07T09:22:31;2.67;;;2.47;;
769;SDS011;368;48.698;9.116;2023-05-07T09:24:59;2.40;;;2.20;;
769;SDS011;368;48.698;9.116;2023-05-07T09:27:26;3.10;;;2.90;;
769;SDS011;368;48.698;9.116;2023-05-07T09:29:53;2.80;;;2.53;;
769;SDS011;368;48.698;9.116;2023-05-07T09:32:19;3.37;;;3.07;;
769;SDS011;368;48.698;9.116;2023-05-07T09:34:46;1.80;;;1.70;;
769;SDS011;368;48.698;9.116;2023-05-07T09:37:13;2.40;;;2.30;;
769;SDS011;368;48.698;9.116;2023-05-07T09:39:40;2.87;;;2.67;;
769;SDS011;368;48.698;9.116;2023-05-07T09:42:09;3.40;;;2.50;;
769;SDS011;368;48.698;9.116;2023-05-07T09:44:36;3.10;;;2.80;;
769;SDS011;368;48.698;9.116;2023-05-07T09:47:04;3.63;;;3.00;;
769;SDS011;368;48.698;9.116;2023-05-07T09:49:33;4.30;;;3.87;;
769;SDS011;368;48.698;9.116;2023-05-07T09:52:02;2.47;;;2.27;;
769;SDS011;368;48.698;9.116;2023-05-07T09:54:31;2.60;;;2.40;;
769;SDS011;368;48.698;9.116;2023-05-07T09:56:59;2.97;;;2.20;;
769;SDS011;368;48.698;9.116;2023-05-07T09:59:31;3.00;;;2.80;;
769;SDS011;368;48.698;9.116;2023-05-07T10:01:59;6.20;;;2.60;;
769;SDS011;368;48.698;9.116;2023-05-07T10:04:27;2.93;;;2.50;;
769;SDS011;368;48.698;9.116;2023-05-07T10:06:55;2.70;;;2.50;;
769;SDS011;368;48.698;9.116;2023-05-07T10:09:22;2.10;;;2.00;;
769;SDS011;368;48.698;9.116;2023-05-07T10:11:50;2.93;;;2.33;;
769;SDS011;368;48.698;9.116;2023-05-07T10:14:17;3.17;;;2.27;;
769;SDS011;368;48.698;9.116;2023-05-07T10:16:48;2.20;;;2.00;;
769;SDS011;368;48.698;9.116;2023-05-07T10:19:14;2.13;;;1.93;;
769;SDS011;368;48.698;9.116;2023-05-07T10:21:44;4.20;;;2.20;;
769;SDS011;368;48.698;9.116;2023-05-07T10:24:19;2.67;;;2.47;;
769;SDS011;368;48.698;9.116;2023-05-07T10:26:48;2.60;;;2.30;;
769;SDS011;368;48.698;9.116;2023-05-07T10:29:18;1.97;;;1.87;;
769;SDS011;368;48.698;9.116;2023-05-07T10:31:57;2.60;;;2.20;;
769;SDS011;368;48.698;9.116;2023-05-07T10:34:34;2.77;;;2.57;;
769;SDS011;368;48.698;9.116;2023-05-07T10:37:04;2.50;;;2.23;;
769;SDS011;368;48.698;9.116;2023-05-07T10:39:31;2.50;;;2.30;;
769;SDS011;368;48.698;9.116;2023-05-07T10:42:06;4.63;;;2.27;;
769;SDS011;368;48.698;9.116;2023-05-07T10:44:34;2.30;;;2.10;;
769;SDS011;368;48.698;9.116;2023-05-07T10:47:07;2.30;;;1.87;;
769;SDS011;368;48.698;9.116;2023-05-07T10:49:35;2.03;;;1.93;;
769;SDS011;368;48.698;9.116;2023-05-07T10:52:12;2.53;;;2.27;;
769;SDS011;368;48.698;9.116;2023-05-07T10:54:40;2.90;;;1.93;;
769;SDS011;368;48.698;9.116;2023-05-07T11:00:01;4.57;;;2.20;;
769;SDS011;368;48.698;9.116;2023-05-07T11:05:34;2.97;;;2.77;;
769;SDS011;368;48.698;9.116;2023-05-07T11:08:02;2.23;;;2.03;;
769;SDS011;368;48.698;9.116;2023-05-07T11:16:19;2.60;;;2.40;;
769;SDS011;368;48.698;9.116;2023-05-07T11:18:49;3.87;;;2.60;;
769;SDS011;368;48.698;9.116;2023-05-07T11:21:33;3.20;;;2.90;;
769;SDS011;368;48.698;9.116;2023-05-07T11:24:01;2.33;;;2.13;;
769;SDS011;368;48.698;9.116;2023-05-07T11:26:30;3.03;;;2.27;;
769;SDS011;368;48.698;9.116;2023-05-07T11:28:57;2.77;;;2.57;;
769;SDS011;368;48.698;9.116;2023-05-07T11:31:26;2.63;;;2.43;;
769;SDS011;368;48.698;9.116;2023-05-07T11:33:56;2.80;;;2.60;;
769;SDS011;368;48.698;9.116;2023-05-07T11:36:23;3.80;;;2.43;;
769;SDS011;368;48.698;9.116;2023-05-07T11:38:51;2.20;;;2.00;;
769;SDS011;368;48.698;9.116;2023-05-07T11:41:19;3.03;;;2.60;;
769;SDS011;368;48.698;9.116;2023-05-07T11:43:53;3.83;;;2.70;;
769;SDS011;368;48.698;9.116;2023-05-07T11:46:23;2.47;;;2.13;;
769;SDS011;368;48.698;9.116;2023-05-07T11:48:50;2.70;;;2.47;;
769;SDS011;368;48.698;9.116;2023-05-07T11:51:22;5.03;;;2.57;;
769;SDS011;368;48.698;9.116;2023-05-07T11:53:51;3.63;;;2.53;;
769;SDS011;368;48.698;9.116;2023-05-07T11:56:18;3.53;;;2.90;;
769;SDS011;368;48.698;9.116;2023-05-07T11:58:46;4.40;;;2.90;;
769;SDS011;368;48.698;9.116;2023-05-07T12:01:14;2.40;;;2.20;;
769;SDS011;368;48.698;9.116;2023-05-07T12:03:42;2.53;;;2.33;;
769;SDS011;368;48.698;9.116;2023-05-07T12:06:11;3.53;;;2.40;;
769;SDS011;368;48.698;9.116;2023-05-07T12:08:40;3.37;;;2.60;;
769;SDS011;368;48.698;9.116;2023-05-07T12:11:08;3.20;;;2.90;;
769;SDS011;368;48.698;9.116;2023-05-07T12:13:36;4.60;;;2.70;;
769;SDS011;368;48.698;9.116;2023-05-07T12:16:04;2.70;;;2.10;;
769;SDS011;368;48.698;9.116;2023-05-07T12:18:33;2.20;;;2.03;;
769;SDS011;368;48.698;9.116;2023-05-07T12:21:01;2.80;;;2.07;;
769;SDS011;368;48.698;9.116;2023-05-07T12:23:29;2.50;;;1.60;;
769;SDS011;368;48.698;9.116;2023-05-07T12:25:58;1.50;;;1.40;;
769;SDS011;368;48.698;9.116;2023-05-07T12:28:26;2.40;;;1.63;;
769;SDS011;368;48.698;9.116;2023-05-07T12:30:52;1.90;;;1.30;;
769;SDS011;368;48.698;9.116;2023-05-07T12:33:23;2.33;;;1.27;;
769;SDS011;368;48.698;9.116;2023-05-07T12:35:52;1.63;;;1.53;;
769;SDS011;368;48.698;9.116;2023-05-07T12:38:20;3.73;;;1.87;;
769;SDS011;368;48.698;9.116;2023-05-07T12:40:48;4.37;;;1.97;;
769;SDS011;368;48.698;9.116;2023-05-07T12:43:18;1.80;;;1.67;;
769;SDS011;368;48.698;9.116;2023-05-07T12:45:47;3.80;;;2.07;;
769;SDS011;368;48.698;9.116;2023-05-07T12:48:16;3.60;;;1.93;;
769;SDS011;368;48.698;9.116;2023-05-07T12:50:43;5.23;;;2.60;;
769;SDS011;368;48.698;9.116;2023-05-07T12:53:11;5.07;;;2.60;;
769;SDS011;368;48.698;9.116;2023-05-07T12:55:40;5.67;;;2.33;;
769;SDS011;368;48.698;9.116;2023-05-07T12:58:21;3.47;;;2.77;;
769;SDS011;368;48.698;9.116;2023-05-07T13:00:51;4.63;;;2.73;;
769;SDS011;368;48.698;9.116;2023-05-07T13:03:21;7.43;;;2.90;;
769;SDS011;368;48.698;9.116;2023-05-07T13:05:49;4.90;;;3.27;;
769;SDS011;368;48.698;9.116;2023-05-07T13:08:23;3.47;;;2.80;;
769;SDS011;368;48.698;9.116;2023-05-07T13:10:53;3.60;;;2.73;;
769;SDS011;368;48.698;9.116;2023-05-07T13:13:22;3.83;;;2.30;;
769;SDS011;368;48.698;9.116;2023-05-07T13:15:48;3.07;;;2.27;;
769;SDS011;368;48.698;9.116;2023-05-07T13:18:15;2.37;;;2.17;;
769;SDS011;368;48.698;9.116;2023-05-07T13:20:43;4.70;;;3.50;;
769;SDS011;368;48.698;9.116;2023-05-07T13:23:09;5.77;;;4.53;;
769;SDS011;368;48.698;9.116;2023-05-07T13:25:36;7.93;;;5.30;;
769;SDS011;368;48.698;9.116;2023-05-07T13:28:04;6.10;;;5.50;;
769;SDS011;368;48.698;9.116;2023-05-07T13:30:35;5.10;;;3.90;;
769;SDS011;368;48.698;9.116;2023-05-07T13:33:02;4.20;;;2.43;;
769;SDS011;368;48.698;9.116;2023-05-07T13:35:29;5.33;;;2.50;;
769;SDS011;368;48.698;9.116;2023-05-07T13:37:56;2.40;;;2.20;;
769;SDS011;368;48.698;9.116;2023-05-07T13:40:22;2.90;;;2.70;;
769;SDS011;368;48.698;9.116;2023-05-07T13:42:50;9.97;;;4.67;;
769;SDS011;368;48.698;9.116;2023-05-07T13:45:17;5.83;;;4.00;;
769;SDS011;368;48.698;9.116;2023-05-07T13:47:46;4.10;;;3.70;;
769;SDS011;368;48.698;9.116;2023-05-07T13:50:14;6.70;;;3.70;;
769;SDS011;368;48.698;9.116;2023-05-07T13:52:43;8.07;;;3.60;;
769;SDS011;368;48.698;9.116;2023-05-07T13:55:15;5.10;;;3.80;;
769;SDS011;368;48.698;9.116;2023-05-07T13:57:42;5.40;;;4.27;;
769;SDS011;368;48.698;9.116;2023-05-07T14:00:09;5.17;;;4.73;;
769;SDS011;368;48.698;9.116;2023-05-07T14:02:37;5.40;;;4.57;;
769;SDS011;368;48.698;9.116;2023-05-07T14:05:06;7.80;;;4.63;;
769;SDS011;368;48.698;9.116;2023-05-07T14:07:34;6.07;;;5.10;;
769;SDS011;368;48.698;9.116;2023-05-07T14:10:01;8.67;;;7.87;;
769;SDS011;368;48.698;9.116;2023-05-07T14:12:27;7.47;;;6.77;;
769;SDS011;368;48.698;9.116;2023-05-07T14:14:54;5.40;;;4.77;;
769;SDS011;368;48.698;9.116;2023-05-07T14:17:21;5.43;;;4.70;;
769;SDS011;368;48.698;9.116;2023-05-07T14:19:50;5.30;;;4.30;;
769;SDS011;368;48.698;9.116;2023-05-07T14:22:20;4.90;;;4.40;;
769;SDS011;368;48.698;9.116;2023-05-07T14:24:48;6.50;;;4.10;;
769;SDS011;368;48.698;9.116;2023-05-07T14:27:15;4.80;;;3.70;;
769;SDS011;368;48.698;9.116;2023-05-07T14:29:42;4.50;;;3.60;;
769;SDS011;368;48.698;9.116;2023-05-07T14:32:10;4.17;;;3.70;;
769;SDS011;368;48.698;9.116;2023-05-07T14:34:38;4.53;;;3.40;;
769;SDS011;368;48.698;9.116;2023-05-07T14:37:04;4.40;;;3.50;;
769;SDS011;368;48.698;9.116;2023-05-07T14:39:33;4.40;;;4.00;;
769;SDS011;368;48.698;9.116;2023-05-07T14:41:59;4.77;;;4.20;;
769;SDS011;368;48.698;9.116;2023-05-07T14:44:26;4.40;;;4.00;;
769;SDS011;368;48.698;9.116;2023-05-07T14:46:53;5.97;;;4.60;;
769;SDS011;368;48.698;9.116;2023-05-07T14:49:20;5.20;;;4.70;;
769;SDS011;368;48.698;9.116;2023-05-07T14:51:47;4.80;;;4.40;;
769;SDS011;368;48.698;9.116;2023-05-07T14:54:14;7.07;;;3.93;;
769;SDS011;368;48.698;9.116;2023-05-07T14:56:42;4.60;;;4.07;;
769;SDS011;368;48.698;9.116;2023-05-07T14:59:09;4.37;;;3.70;;
769;SDS011;368;48.698;9.116;2023-05-07T15:01:36;4.77;;;4.33;;
769;SDS011;368;48.698;9.116;2023-05-07T15:04:05;5.77;;;3.93;;
769;SDS011;368;48.698;9.116;2023-05-07T15:06:32;7.73;;;3.77;;
769;SDS011;368;48.698;9.116;2023-05-07T15:08:59;4.30;;;3.83;;
769;SDS011;368;48.698;9.116;2023-05-07T15:11:26;6.87;;;3.77;;
769;SDS011;368;48.698;9.116;2023-05-07T15:13:54;3.90;;;3.50;;
769;SDS011;368;48.698;9.116;2023-05-07T15:16:21;5.73;;;4.00;;
769;SDS011;368;48.698;9.116;2023-05-07T15:18:49;7.07;;;4.70;;
769;SDS011;368;48.698;9.116;2023-05-07T15:21:16;6.50;;;3.60;;
769;SDS011;368;48.698;9.116;2023-05-07T15:23:42;3.23;;;2.93;;
769;SDS011;368;48.698;9.116;2023-05-07T15:26:10;3.20;;;3.00;;
769;SDS011;368;48.698;9.116;2023-05-07T15:28:37;4.07;;;2.90;;
769;SDS011;368;48.698;9.116;2023-05-07T15:31:05;4.80;;;3.13;;
769;SDS011;368;48.698;9.116;2023-05-07T15:33:32;3.43;;;2.80;;
769;SDS011;368;48.698;9.116;2023-05-07T15:36:00;3.53;;;3.23;;
769;SDS011;368;48.698;9.116;2023-05-07T15:38:28;3.13;;;2.80;;
769;SDS011;368;48.698;9.116;2023-05-07T15:40:55;3.60;;;3.17;;
769;SDS011;368;48.698;9.116;2023-05-07T15:43:21;4.63;;;3.13;;
769;SDS011;368;48.698;9.116;2023-05-07T15:45:49;5.53;;;4.23;;
769;SDS011;368;48.698;9.116;2023-05-07T15:48:18;5.30;;;3.63;;
769;SDS011;368;48.698;9.116;2023-05-07T15:50:44;3.60;;;2.70;;
769;SDS011;368;48.698;9.116;2023-05-07T15:53:13;3.40;;;3.20;;
769;SDS011;368;48.698;9.116;2023-05-07T15:55:39;2.43;;;2.23;;
769;SDS011;368;48.698;9.116;2023-05-07T15:58:08;3.27;;;2.40;;
769;SDS011;368;48.698;9.116;2023-05-07T16:00:35;2.97;;;2.77;;
769;SDS011;368;48.698;9.116;2023-05-07T16:03:05;4.13;;;3.23;;
769;SDS011;368;48.698;9.116;2023-05-07T16:05:33;2.90;;;2.70;;
769;SDS011;368;48.698;9.116;2023-05-07T16:08:00;3.70;;;3.40;;
769;SDS011;368;48.698;9.116;2023-05-07T16:10:28;2.97;;;2.77;;
769;SDS011;368;48.698;9.116;2023-05-07T16:12:55;4.13;;;3.07;;
769;SDS011;368;48.698;9.116;2023-05-07T16:15:22;2.87;;;2.63;;
769;SDS011;368;48.698;9.116;2023-05-07T16:17:49;3.10;;;2.60;;